Details From GCLP - Gran Canaria
To GCLA - La Palma
Flight Number -
Tags decoded
Created
Modified
Stats Distance 150 nm / 278 km
Max Altitude 0 ft / 0 m
Waypoints 3
Social Downloads 0
Likes 0
Share VATSIM

Download

Looking for another format? Having issues loading an existing format? Contact us
Advertisement - Login to hide

Notes

Requested: GCLP TFS DRANO GCLA

Route

GCLP DRANO GCLA

ID Type Via Altitude Latitude Longitude Leg Dist Tot Dist Heading (true) Name
O GCLP APT - 0 ft / 0 m 27.93154˚ -15.38559˚ - 0 nm - Gran Canaria
DRANO FIX - 0 ft / 0 m 27.65565˚ -15.50677˚ 17 nm 17 nm 201° / 201° -
O GCLA APT - 0 ft / 0 m 28.62648˚ -17.75561˚ 132 nm 150 nm 297° / 296° La Palma

Altitude Profile

Advertisement - Login to hide

GCLP

Details ICAO GCLP (LPA)
Name Gran Canaria
Region Canary Islands
Timezone Atlantic/Canary (UTC+0.0)
Stats Elevation 77 ft / 23 m (AMSL)
Location 27.931544° -15.385592°
Runways 2
Magnetic Variation 4.684° W

METAR

GCLP 171200Z 03021KT 9999 SCT034 BKN050 19/13 Q1023 NOSIG

Decode

TAF

TAF GCLP 170800Z 1709/1809 01018KT 9999 FEW030 BKN040 TX20/1714Z TN15/1806Z PROB30 TEMPO 1709/1721 01019G29KT PROB40 TEMPO 1709/1713 4900 RA

Decode

Departure Runways

ID Width Length Bearing (true) Bearing (mag) Surface Threshold Offset Overrun Length
03L 148 ft / 45 m 10,203 ft / 3,110 m 21.33° 26.01° Asphalt 0 ft / 0 m 656 ft / 200 m
03R 148 ft / 45 m 10,200 ft / 3,109 m 21.32° 26.00° Asphalt 0 ft / 0 m 673 ft / 205 m
21L 148 ft / 45 m 10,200 ft / 3,109 m 201.33° 206.01° Asphalt 0 ft / 0 m 689 ft / 210 m
21R 148 ft / 45 m 10,203 ft / 3,110 m 201.33° 206.01° Asphalt 0 ft / 0 m 755 ft / 230 m

GCLA

Details ICAO GCLA (SPC)
Name La Palma
Region Canary Islands
Timezone Atlantic/Canary (UTC+0.0)
Stats Elevation 107 ft / 33 m (AMSL)
Location 28.626480° -17.755613°
Runways 1
Magnetic Variation 5.521° W

METAR

GCLA 171200Z 02011KT 340V060 9999 FEW025 BKN040 20/12 Q1025

Decode

TAF

TAF GCLA 170800Z 1709/1809 02015KT 9999 FEW025 BKN040 TX20/1714Z TN16/1806Z PROB30 TEMPO 1709/1720 4900 RA

Decode

Destination Runways

ID Width Length Bearing (true) Bearing (mag) Surface Threshold Offset Overrun Length
01 148 ft / 45 m 7,240 ft / 2,207 m 359.02° 4.54° Asphalt 0 ft / 0 m 279 ft / 85 m
19 148 ft / 45 m 7,240 ft / 2,207 m 179.02° 184.54° Asphalt 0 ft / 0 m 236 ft / 72 m

Popular Alternatives